sensor_id;sensor_type;location;lat;lon;timestamp;P1;durP1;ratioP1;P2;durP2;ratioP2
48215;SDS011;34005;48.844;10.098;2023-01-20T00:01:24;22.52;;;13.38;;
48215;SDS011;34005;48.844;10.098;2023-01-20T00:03:53;18.83;;;13.00;;
48215;SDS011;34005;48.844;10.098;2023-01-20T00:06:23;17.83;;;11.18;;
48215;SDS011;34005;48.844;10.098;2023-01-20T00:08:53;19.23;;;12.27;;
48215;SDS011;34005;48.844;10.098;2023-01-20T00:11:22;20.00;;;12.02;;
48215;SDS011;34005;48.844;10.098;2023-01-20T00:13:53;17.88;;;11.35;;
48215;SDS011;34005;48.844;10.098;2023-01-20T00:16:22;16.38;;;11.10;;
48215;SDS011;34005;48.844;10.098;2023-01-20T00:18:50;14.50;;;9.98;;
48215;SDS011;34005;48.844;10.098;2023-01-20T00:21:18;13.20;;;9.73;;
48215;SDS011;34005;48.844;10.098;2023-01-20T00:23:47;13.20;;;8.55;;
48215;SDS011;34005;48.844;10.098;2023-01-20T00:26:15;13.05;;;8.75;;
48215;SDS011;34005;48.844;10.098;2023-01-20T00:28:44;14.98;;;9.23;;
48215;SDS011;34005;48.844;10.098;2023-01-20T00:31:14;11.13;;;7.40;;
48215;SDS011;34005;48.844;10.098;2023-01-20T00:33:43;11.50;;;8.10;;
48215;SDS011;34005;48.844;10.098;2023-01-20T00:36:12;10.68;;;7.18;;
48215;SDS011;34005;48.844;10.098;2023-01-20T00:38:41;9.75;;;7.28;;
48215;SDS011;34005;48.844;10.098;2023-01-20T00:41:09;9.88;;;7.05;;
48215;SDS011;34005;48.844;10.098;2023-01-20T00:43:37;11.40;;;6.60;;
48215;SDS011;34005;48.844;10.098;2023-01-20T00:46:05;9.63;;;7.18;;
48215;SDS011;34005;48.844;10.098;2023-01-20T00:48:34;10.10;;;7.25;;
48215;SDS011;34005;48.844;10.098;2023-01-20T00:51:03;11.38;;;7.75;;
48215;SDS011;34005;48.844;10.098;2023-01-20T00:53:31;10.48;;;7.55;;
48215;SDS011;34005;48.844;10.098;2023-01-20T00:55:59;12.48;;;8.15;;
48215;SDS011;34005;48.844;10.098;2023-01-20T00:58:27;11.50;;;7.80;;
48215;SDS011;34005;48.844;10.098;2023-01-20T01:00:54;12.45;;;7.93;;
48215;SDS011;34005;48.844;10.098;2023-01-20T01:03:24;13.50;;;7.95;;
48215;SDS011;34005;48.844;10.098;2023-01-20T01:05:58;15.05;;;8.88;;
48215;SDS011;34005;48.844;10.098;2023-01-20T01:08:32;13.30;;;8.30;;
48215;SDS011;34005;48.844;10.098;2023-01-20T01:11:00;14.32;;;8.98;;
48215;SDS011;34005;48.844;10.098;2023-01-20T01:13:29;12.00;;;7.88;;
48215;SDS011;34005;48.844;10.098;2023-01-20T01:15:56;11.23;;;8.25;;
48215;SDS011;34005;48.844;10.098;2023-01-20T01:18:24;11.52;;;8.15;;
48215;SDS011;34005;48.844;10.098;2023-01-20T01:20:52;11.95;;;7.95;;
48215;SDS011;34005;48.844;10.098;2023-01-20T01:23:20;12.43;;;8.30;;
48215;SDS011;34005;48.844;10.098;2023-01-20T01:25:48;13.23;;;9.27;;
48215;SDS011;34005;48.844;10.098;2023-01-20T01:28:15;12.00;;;7.80;;
48215;SDS011;34005;48.844;10.098;2023-01-20T01:30:43;12.00;;;9.02;;
48215;SDS011;34005;48.844;10.098;2023-01-20T01:33:10;12.15;;;8.85;;
48215;SDS011;34005;48.844;10.098;2023-01-20T01:35:38;13.68;;;9.00;;
48215;SDS011;34005;48.844;10.098;2023-01-20T01:38:05;14.23;;;8.60;;
48215;SDS011;34005;48.844;10.098;2023-01-20T01:40:34;16.38;;;10.10;;
48215;SDS011;34005;48.844;10.098;2023-01-20T01:43:02;14.18;;;9.60;;
48215;SDS011;34005;48.844;10.098;2023-01-20T01:45:31;16.10;;;10.13;;
48215;SDS011;34005;48.844;10.098;2023-01-20T01:48:03;15.18;;;10.05;;
48215;SDS011;34005;48.844;10.098;2023-01-20T01:50:35;17.08;;;12.50;;
48215;SDS011;34005;48.844;10.098;2023-01-20T01:53:06;15.40;;;11.00;;
48215;SDS011;34005;48.844;10.098;2023-01-20T01:55:38;20.45;;;13.13;;
48215;SDS011;34005;48.844;10.098;2023-01-20T01:58:10;16.20;;;11.75;;
48215;SDS011;34005;48.844;10.098;2023-01-20T02:00:41;16.33;;;10.95;;
48215;SDS011;34005;48.844;10.098;2023-01-20T02:03:09;17.45;;;11.10;;
48215;SDS011;34005;48.844;10.098;2023-01-20T02:05:37;17.63;;;11.38;;
48215;SDS011;34005;48.844;10.098;2023-01-20T02:08:07;15.40;;;10.73;;
48215;SDS011;34005;48.844;10.098;2023-01-20T02:10:34;17.40;;;11.75;;
48215;SDS011;34005;48.844;10.098;2023-01-20T02:13:03;15.93;;;11.63;;
48215;SDS011;34005;48.844;10.098;2023-01-20T02:15:32;16.13;;;11.55;;
48215;SDS011;34005;48.844;10.098;2023-01-20T02:18:11;15.40;;;9.77;;
48215;SDS011;34005;48.844;10.098;2023-01-20T02:23:38;18.63;;;12.23;;
48215;SDS011;34005;48.844;10.098;2023-01-20T02:32:14;16.67;;;11.27;;
48215;SDS011;34005;48.844;10.098;2023-01-20T02:34:53;14.85;;;11.32;;
48215;SDS011;34005;48.844;10.098;2023-01-20T02:37:25;15.80;;;11.45;;
48215;SDS011;34005;48.844;10.098;2023-01-20T02:39:57;16.30;;;12.15;;
48215;SDS011;34005;48.844;10.098;2023-01-20T02:42:40;18.17;;;13.55;;
48215;SDS011;34005;48.844;10.098;2023-01-20T02:45:14;18.27;;;13.07;;
48215;SDS011;34005;48.844;10.098;2023-01-20T02:47:51;17.42;;;13.13;;
48215;SDS011;34005;48.844;10.098;2023-01-20T02:50:25;18.05;;;13.43;;
48215;SDS011;34005;48.844;10.098;2023-01-20T02:52:58;20.10;;;14.23;;
48215;SDS011;34005;48.844;10.098;2023-01-20T02:55:30;15.93;;;12.00;;
48215;SDS011;34005;48.844;10.098;2023-01-20T02:58:03;16.45;;;13.13;;
48215;SDS011;34005;48.844;10.098;2023-01-20T03:00:35;17.42;;;13.02;;
48215;SDS011;34005;48.844;10.098;2023-01-20T03:03:08;17.98;;;12.90;;
48215;SDS011;34005;48.844;10.098;2023-01-20T03:05:44;16.35;;;12.52;;
48215;SDS011;34005;48.844;10.098;2023-01-20T03:08:15;15.75;;;11.57;;
48215;SDS011;34005;48.844;10.098;2023-01-20T03:10:45;17.83;;;11.77;;
48215;SDS011;34005;48.844;10.098;2023-01-20T03:13:14;17.33;;;11.88;;
48215;SDS011;34005;48.844;10.098;2023-01-20T03:15:48;17.50;;;12.00;;
48215;SDS011;34005;48.844;10.098;2023-01-20T03:18:24;15.98;;;12.18;;
48215;SDS011;34005;48.844;10.098;2023-01-20T03:20:54;15.88;;;12.18;;
48215;SDS011;34005;48.844;10.098;2023-01-20T03:23:23;17.02;;;12.73;;
48215;SDS011;34005;48.844;10.098;2023-01-20T03:25:51;15.80;;;11.63;;
48215;SDS011;34005;48.844;10.098;2023-01-20T03:28:20;22.67;;;13.68;;
48215;SDS011;34005;48.844;10.098;2023-01-20T03:30:47;23.33;;;15.75;;
48215;SDS011;34005;48.844;10.098;2023-01-20T03:33:15;21.40;;;15.60;;
48215;SDS011;34005;48.844;10.098;2023-01-20T03:35:45;22.20;;;15.52;;
48215;SDS011;34005;48.844;10.098;2023-01-20T03:38:13;19.52;;;14.93;;
48215;SDS011;34005;48.844;10.098;2023-01-20T03:40:42;20.67;;;16.10;;
48215;SDS011;34005;48.844;10.098;2023-01-20T03:43:15;19.77;;;15.43;;
48215;SDS011;34005;48.844;10.098;2023-01-20T03:45:53;19.45;;;15.18;;
48215;SDS011;34005;48.844;10.098;2023-01-20T03:48:27;20.90;;;15.75;;
48215;SDS011;34005;48.844;10.098;2023-01-20T03:51:04;23.90;;;15.48;;
48215;SDS011;34005;48.844;10.098;2023-01-20T03:53:37;24.33;;;17.05;;
48215;SDS011;34005;48.844;10.098;2023-01-20T03:56:11;22.38;;;15.48;;
48215;SDS011;34005;48.844;10.098;2023-01-20T03:58:43;22.43;;;15.87;;
48215;SDS011;34005;48.844;10.098;2023-01-20T04:01:14;20.13;;;15.95;;
48215;SDS011;34005;48.844;10.098;2023-01-20T04:03:46;21.05;;;16.00;;
48215;SDS011;34005;48.844;10.098;2023-01-20T04:06:17;22.42;;;15.80;;
48215;SDS011;34005;48.844;10.098;2023-01-20T04:08:50;21.33;;;15.70;;
48215;SDS011;34005;48.844;10.098;2023-01-20T04:11:22;20.83;;;15.43;;
48215;SDS011;34005;48.844;10.098;2023-01-20T04:13:49;23.98;;;17.85;;
48215;SDS011;34005;48.844;10.098;2023-01-20T04:16:17;18.98;;;15.18;;
48215;SDS011;34005;48.844;10.098;2023-01-20T04:18:47;24.38;;;17.85;;
48215;SDS011;34005;48.844;10.098;2023-01-20T04:21:18;23.65;;;17.13;;
48215;SDS011;34005;48.844;10.098;2023-01-20T04:23:51;23.98;;;17.15;;
48215;SDS011;34005;48.844;10.098;2023-01-20T04:26:24;26.38;;;16.83;;
48215;SDS011;34005;48.844;10.098;2023-01-20T04:28:51;22.92;;;16.15;;
48215;SDS011;34005;48.844;10.098;2023-01-20T04:31:19;21.77;;;17.05;;
48215;SDS011;34005;48.844;10.098;2023-01-20T04:33:55;24.38;;;18.05;;
48215;SDS011;34005;48.844;10.098;2023-01-20T04:36:24;22.45;;;17.70;;
48215;SDS011;34005;48.844;10.098;2023-01-20T04:38:52;26.30;;;17.98;;
48215;SDS011;34005;48.844;10.098;2023-01-20T04:41:19;22.48;;;16.63;;
48215;SDS011;34005;48.844;10.098;2023-01-20T04:43:47;26.25;;;19.02;;
48215;SDS011;34005;48.844;10.098;2023-01-20T04:46:14;23.67;;;17.77;;
48215;SDS011;34005;48.844;10.098;2023-01-20T04:48:43;25.00;;;17.33;;
48215;SDS011;34005;48.844;10.098;2023-01-20T04:51:10;25.50;;;18.08;;
48215;SDS011;34005;48.844;10.098;2023-01-20T04:53:40;24.25;;;18.05;;
48215;SDS011;34005;48.844;10.098;2023-01-20T04:56:09;25.35;;;17.75;;
48215;SDS011;34005;48.844;10.098;2023-01-20T04:58:38;26.90;;;17.95;;
48215;SDS011;34005;48.844;10.098;2023-01-20T05:01:05;24.52;;;18.00;;
48215;SDS011;34005;48.844;10.098;2023-01-20T05:03:33;26.52;;;17.65;;
48215;SDS011;34005;48.844;10.098;2023-01-20T05:06:01;25.00;;;17.63;;
48215;SDS011;34005;48.844;10.098;2023-01-20T05:08:28;27.55;;;17.00;;
48215;SDS011;34005;48.844;10.098;2023-01-20T05:10:57;23.77;;;17.60;;
48215;SDS011;34005;48.844;10.098;2023-01-20T05:13:25;26.52;;;18.20;;
48215;SDS011;34005;48.844;10.098;2023-01-20T05:15:52;28.20;;;18.88;;
48215;SDS011;34005;48.844;10.098;2023-01-20T05:18:20;26.75;;;18.77;;
48215;SDS011;34005;48.844;10.098;2023-01-20T05:20:48;25.90;;;17.67;;
48215;SDS011;34005;48.844;10.098;2023-01-20T05:23:16;26.13;;;18.45;;
48215;SDS011;34005;48.844;10.098;2023-01-20T05:25:48;24.13;;;17.73;;
48215;SDS011;34005;48.844;10.098;2023-01-20T05:28:17;26.67;;;18.13;;
48215;SDS011;34005;48.844;10.098;2023-01-20T05:30:45;26.80;;;20.13;;
48215;SDS011;34005;48.844;10.098;2023-01-20T05:33:13;24.83;;;18.17;;
48215;SDS011;34005;48.844;10.098;2023-01-20T05:35:41;28.92;;;18.90;;
48215;SDS011;34005;48.844;10.098;2023-01-20T05:38:08;25.58;;;18.50;;
48215;SDS011;34005;48.844;10.098;2023-01-20T05:40:36;27.33;;;17.92;;
48215;SDS011;34005;48.844;10.098;2023-01-20T05:43:03;26.40;;;18.13;;
48215;SDS011;34005;48.844;10.098;2023-01-20T05:45:32;25.17;;;17.30;;
48215;SDS011;34005;48.844;10.098;2023-01-20T05:48:00;28.95;;;18.33;;
48215;SDS011;34005;48.844;10.098;2023-01-20T05:50:28;30.77;;;19.75;;
48215;SDS011;34005;48.844;10.098;2023-01-20T05:52:57;28.38;;;18.75;;
48215;SDS011;34005;48.844;10.098;2023-01-20T05:55:25;28.80;;;18.88;;
48215;SDS011;34005;48.844;10.098;2023-01-20T05:57:53;26.80;;;19.15;;
48215;SDS011;34005;48.844;10.098;2023-01-20T06:00:20;28.95;;;20.35;;
48215;SDS011;34005;48.844;10.098;2023-01-20T06:02:50;29.70;;;19.52;;
48215;SDS011;34005;48.844;10.098;2023-01-20T06:05:17;28.35;;;18.77;;
48215;SDS011;34005;48.844;10.098;2023-01-20T06:07:45;32.92;;;20.38;;
48215;SDS011;34005;48.844;10.098;2023-01-20T06:10:14;28.13;;;19.42;;
48215;SDS011;34005;48.844;10.098;2023-01-20T06:12:42;27.90;;;18.00;;
48215;SDS011;34005;48.844;10.098;2023-01-20T06:15:10;31.77;;;19.83;;
48215;SDS011;34005;48.844;10.098;2023-01-20T06:17:38;27.58;;;18.27;;
48215;SDS011;34005;48.844;10.098;2023-01-20T06:20:08;31.65;;;20.08;;
48215;SDS011;34005;48.844;10.098;2023-01-20T06:22:36;29.50;;;19.38;;
48215;SDS011;34005;48.844;10.098;2023-01-20T06:25:04;35.22;;;20.05;;
48215;SDS011;34005;48.844;10.098;2023-01-20T06:27:32;29.20;;;19.55;;
48215;SDS011;34005;48.844;10.098;2023-01-20T06:30:01;32.28;;;21.00;;
48215;SDS011;34005;48.844;10.098;2023-01-20T06:32:38;39.30;;;22.10;;
48215;SDS011;34005;48.844;10.098;2023-01-20T06:35:07;36.17;;;21.10;;
48215;SDS011;34005;48.844;10.098;2023-01-20T06:37:36;32.30;;;21.05;;
48215;SDS011;34005;48.844;10.098;2023-01-20T06:40:04;32.38;;;18.80;;
48215;SDS011;34005;48.844;10.098;2023-01-20T06:42:32;32.47;;;19.15;;
48215;SDS011;34005;48.844;10.098;2023-01-20T06:45:00;29.58;;;19.05;;
48215;SDS011;34005;48.844;10.098;2023-01-20T06:47:28;28.50;;;17.95;;
48215;SDS011;34005;48.844;10.098;2023-01-20T06:49:55;29.63;;;18.55;;
48215;SDS011;34005;48.844;10.098;2023-01-20T06:52:24;34.00;;;20.13;;
48215;SDS011;34005;48.844;10.098;2023-01-20T06:54:52;33.05;;;18.77;;
48215;SDS011;34005;48.844;10.098;2023-01-20T06:57:20;30.90;;;18.17;;
48215;SDS011;34005;48.844;10.098;2023-01-20T06:59:48;31.10;;;19.60;;
48215;SDS011;34005;48.844;10.098;2023-01-20T07:02:19;40.95;;;22.42;;
48215;SDS011;34005;48.844;10.098;2023-01-20T07:04:57;31.05;;;20.73;;
48215;SDS011;34005;48.844;10.098;2023-01-20T07:11:17;29.90;;;18.67;;
48215;SDS011;34005;48.844;10.098;2023-01-20T07:16:34;28.13;;;18.45;;
48215;SDS011;34005;48.844;10.098;2023-01-20T07:19:06;31.67;;;19.95;;
48215;SDS011;34005;48.844;10.098;2023-01-20T07:21:45;29.27;;;18.50;;
48215;SDS011;34005;48.844;10.098;2023-01-20T07:24:38;31.65;;;18.35;;
48215;SDS011;34005;48.844;10.098;2023-01-20T07:27:27;33.55;;;19.17;;
48215;SDS011;34005;48.844;10.098;2023-01-20T07:29:55;29.92;;;18.35;;
48215;SDS011;34005;48.844;10.098;2023-01-20T07:32:23;34.05;;;19.73;;
48215;SDS011;34005;48.844;10.098;2023-01-20T07:34:52;31.05;;;20.25;;
48215;SDS011;34005;48.844;10.098;2023-01-20T07:37:25;30.67;;;17.77;;
48215;SDS011;34005;48.844;10.098;2023-01-20T07:40:06;30.40;;;19.50;;
48215;SDS011;34005;48.844;10.098;2023-01-20T07:42:40;32.70;;;18.67;;
48215;SDS011;34005;48.844;10.098;2023-01-20T07:45:08;31.02;;;19.25;;
48215;SDS011;34005;48.844;10.098;2023-01-20T07:47:36;30.38;;;18.90;;
48215;SDS011;34005;48.844;10.098;2023-01-20T07:50:10;27.88;;;17.00;;
48215;SDS011;34005;48.844;10.098;2023-01-20T07:52:40;28.85;;;18.20;;
48215;SDS011;34005;48.844;10.098;2023-01-20T07:55:08;28.45;;;18.10;;
48215;SDS011;34005;48.844;10.098;2023-01-20T07:57:36;28.30;;;18.25;;
48215;SDS011;34005;48.844;10.098;2023-01-20T08:00:05;27.77;;;18.00;;
48215;SDS011;34005;48.844;10.098;2023-01-20T08:02:35;34.58;;;19.60;;
48215;SDS011;34005;48.844;10.098;2023-01-20T08:05:06;27.58;;;18.05;;
48215;SDS011;34005;48.844;10.098;2023-01-20T08:07:37;26.98;;;17.70;;
48215;SDS011;34005;48.844;10.098;2023-01-20T08:10:05;30.40;;;18.40;;
48215;SDS011;34005;48.844;10.098;2023-01-20T08:12:34;27.40;;;17.38;;
48215;SDS011;34005;48.844;10.098;2023-01-20T08:15:02;25.65;;;16.42;;
48215;SDS011;34005;48.844;10.098;2023-01-20T08:17:32;26.67;;;16.58;;
48215;SDS011;34005;48.844;10.098;2023-01-20T08:20:00;28.23;;;16.73;;
48215;SDS011;34005;48.844;10.098;2023-01-20T08:22:28;30.83;;;18.80;;
48215;SDS011;34005;48.844;10.098;2023-01-20T08:24:56;27.45;;;18.02;;
48215;SDS011;34005;48.844;10.098;2023-01-20T08:27:23;27.23;;;17.23;;
48215;SDS011;34005;48.844;10.098;2023-01-20T08:29:53;28.02;;;17.75;;
48215;SDS011;34005;48.844;10.098;2023-01-20T08:32:22;29.92;;;19.35;;
48215;SDS011;34005;48.844;10.098;2023-01-20T08:34:50;31.90;;;19.73;;
48215;SDS011;34005;48.844;10.098;2023-01-20T08:37:18;32.75;;;20.83;;
48215;SDS011;34005;48.844;10.098;2023-01-20T08:39:45;33.40;;;21.40;;
48215;SDS011;34005;48.844;10.098;2023-01-20T08:42:13;38.47;;;24.27;;
48215;SDS011;34005;48.844;10.098;2023-01-20T08:44:41;40.47;;;23.50;;
48215;SDS011;34005;48.844;10.098;2023-01-20T08:47:09;38.40;;;23.63;;
48215;SDS011;34005;48.844;10.098;2023-01-20T08:49:38;38.30;;;23.50;;
48215;SDS011;34005;48.844;10.098;2023-01-20T08:52:06;36.40;;;23.85;;
48215;SDS011;34005;48.844;10.098;2023-01-20T08:54:37;33.58;;;21.35;;
48215;SDS011;34005;48.844;10.098;2023-01-20T08:57:04;38.67;;;24.15;;
48215;SDS011;34005;48.844;10.098;2023-01-20T08:59:33;30.55;;;21.15;;
48215;SDS011;34005;48.844;10.098;2023-01-20T09:02:00;30.15;;;19.92;;
48215;SDS011;34005;48.844;10.098;2023-01-20T09:04:28;31.33;;;20.55;;
48215;SDS011;34005;48.844;10.098;2023-01-20T09:06:59;33.33;;;20.83;;
48215;SDS011;34005;48.844;10.098;2023-01-20T09:09:27;34.53;;;20.75;;
48215;SDS011;34005;48.844;10.098;2023-01-20T09:11:54;32.60;;;20.25;;
48215;SDS011;34005;48.844;10.098;2023-01-20T09:14:23;31.60;;;19.63;;
48215;SDS011;34005;48.844;10.098;2023-01-20T09:16:51;26.52;;;18.60;;
48215;SDS011;34005;48.844;10.098;2023-01-20T09:19:19;28.30;;;17.60;;
48215;SDS011;34005;48.844;10.098;2023-01-20T09:21:47;30.75;;;19.25;;
48215;SDS011;34005;48.844;10.098;2023-01-20T09:24:16;25.58;;;17.42;;
48215;SDS011;34005;48.844;10.098;2023-01-20T09:26:44;34.47;;;18.40;;
48215;SDS011;34005;48.844;10.098;2023-01-20T09:29:12;29.60;;;18.02;;
48215;SDS011;34005;48.844;10.098;2023-01-20T09:31:41;26.23;;;17.92;;
48215;SDS011;34005;48.844;10.098;2023-01-20T09:34:11;26.10;;;16.15;;
48215;SDS011;34005;48.844;10.098;2023-01-20T09:36:40;28.08;;;18.15;;
48215;SDS011;34005;48.844;10.098;2023-01-20T09:39:08;29.70;;;17.88;;
48215;SDS011;34005;48.844;10.098;2023-01-20T09:41:55;34.10;;;22.27;;
48215;SDS011;34005;48.844;10.098;2023-01-20T09:44:46;33.63;;;20.92;;
48215;SDS011;34005;48.844;10.098;2023-01-20T09:50:09;22.17;;;14.27;;
48215;SDS011;34005;48.844;10.098;2023-01-20T09:53:03;14.57;;;9.85;;
48215;SDS011;34005;48.844;10.098;2023-01-20T09:55:37;13.15;;;9.25;;
48215;SDS011;34005;48.844;10.098;2023-01-20T09:58:12;12.80;;;8.40;;
48215;SDS011;34005;48.844;10.098;2023-01-20T10:00:45;12.30;;;8.57;;
48215;SDS011;34005;48.844;10.098;2023-01-20T10:03:16;15.93;;;9.52;;
48215;SDS011;34005;48.844;10.098;2023-01-20T10:05:49;12.85;;;8.70;;
48215;SDS011;34005;48.844;10.098;2023-01-20T10:08:22;13.95;;;9.18;;
48215;SDS011;34005;48.844;10.098;2023-01-20T10:10:54;13.15;;;8.93;;
48215;SDS011;34005;48.844;10.098;2023-01-20T10:13:30;12.77;;;7.93;;
48215;SDS011;34005;48.844;10.098;2023-01-20T10:16:02;12.00;;;7.93;;
48215;SDS011;34005;48.844;10.098;2023-01-20T10:18:35;12.93;;;9.57;;
48215;SDS011;34005;48.844;10.098;2023-01-20T10:21:10;11.43;;;7.68;;
48215;SDS011;34005;48.844;10.098;2023-01-20T10:23:45;10.80;;;7.47;;
48215;SDS011;34005;48.844;10.098;2023-01-20T10:26:19;10.38;;;7.90;;
48215;SDS011;34005;48.844;10.098;2023-01-20T10:28:54;9.30;;;6.93;;
48215;SDS011;34005;48.844;10.098;2023-01-20T10:31:26;13.15;;;8.55;;
48215;SDS011;34005;48.844;10.098;2023-01-20T10:33:56;10.15;;;7.68;;
48215;SDS011;34005;48.844;10.098;2023-01-20T10:38:57;9.57;;;6.88;;
48215;SDS011;34005;48.844;10.098;2023-01-20T10:41:31;11.07;;;7.70;;
48215;SDS011;34005;48.844;10.098;2023-01-20T10:44:08;9.57;;;6.75;;
48215;SDS011;34005;48.844;10.098;2023-01-20T10:46:42;11.82;;;6.93;;
48215;SDS011;34005;48.844;10.098;2023-01-20T10:49:32;10.90;;;7.13;;
48215;SDS011;34005;48.844;10.098;2023-01-20T10:52:36;11.00;;;7.72;;
48215;SDS011;34005;48.844;10.098;2023-01-20T10:55:15;8.07;;;6.47;;
48215;SDS011;34005;48.844;10.098;2023-01-20T10:57:55;8.90;;;6.85;;
48215;SDS011;34005;48.844;10.098;2023-01-20T11:00:29;9.82;;;6.60;;
48215;SDS011;34005;48.844;10.098;2023-01-20T11:02:59;8.57;;;6.38;;
48215;SDS011;34005;48.844;10.098;2023-01-20T11:05:32;9.38;;;6.70;;
48215;SDS011;34005;48.844;10.098;2023-01-20T11:08:05;11.02;;;7.25;;
48215;SDS011;34005;48.844;10.098;2023-01-20T11:10:41;9.55;;;7.13;;
48215;SDS011;34005;48.844;10.098;2023-01-20T11:13:08;9.80;;;6.55;;
48215;SDS011;34005;48.844;10.098;2023-01-20T11:15:40;7.75;;;6.00;;
48215;SDS011;34005;48.844;10.098;2023-01-20T11:20:46;7.30;;;5.03;;
48215;SDS011;34005;48.844;10.098;2023-01-20T11:23:20;7.68;;;5.30;;
48215;SDS011;34005;48.844;10.098;2023-01-20T11:25:52;7.45;;;5.25;;
48215;SDS011;34005;48.844;10.098;2023-01-20T11:30:52;5.65;;;4.07;;
48215;SDS011;34005;48.844;10.098;2023-01-20T11:33:23;7.35;;;4.90;;
48215;SDS011;34005;48.844;10.098;2023-01-20T11:35:56;8.63;;;5.00;;
48215;SDS011;34005;48.844;10.098;2023-01-20T11:38:26;10.93;;;7.28;;
48215;SDS011;34005;48.844;10.098;2023-01-20T11:40:55;16.33;;;10.15;;
48215;SDS011;34005;48.844;10.098;2023-01-20T11:43:26;15.25;;;10.95;;
48215;SDS011;34005;48.844;10.098;2023-01-20T11:46:17;16.98;;;10.77;;
48215;SDS011;34005;48.844;10.098;2023-01-20T11:48:48;20.02;;;13.48;;
48215;SDS011;34005;48.844;10.098;2023-01-20T11:51:17;16.98;;;11.18;;
48215;SDS011;34005;48.844;10.098;2023-01-20T11:53:47;17.70;;;10.38;;
48215;SDS011;34005;48.844;10.098;2023-01-20T11:56:22;14.93;;;9.77;;
48215;SDS011;34005;48.844;10.098;2023-01-20T11:58:55;19.13;;;12.02;;
48215;SDS011;34005;48.844;10.098;2023-01-20T12:01:27;16.20;;;11.23;;
48215;SDS011;34005;48.844;10.098;2023-01-20T12:07:11;17.13;;;12.23;;
48215;SDS011;34005;48.844;10.098;2023-01-20T12:09:42;15.00;;;10.85;;
48215;SDS011;34005;48.844;10.098;2023-01-20T12:12:16;14.57;;;10.13;;
48215;SDS011;34005;48.844;10.098;2023-01-20T12:14:54;15.60;;;10.75;;
48215;SDS011;34005;48.844;10.098;2023-01-20T12:17:40;12.10;;;9.70;;
48215;SDS011;34005;48.844;10.098;2023-01-20T12:20:16;25.38;;;13.18;;
48215;SDS011;34005;48.844;10.098;2023-01-20T12:22:58;16.60;;;11.68;;
48215;SDS011;34005;48.844;10.098;2023-01-20T12:25:34;13.98;;;10.23;;
48215;SDS011;34005;48.844;10.098;2023-01-20T12:28:09;14.52;;;10.00;;
48215;SDS011;34005;48.844;10.098;2023-01-20T12:30:44;14.32;;;10.57;;
48215;SDS011;34005;48.844;10.098;2023-01-20T12:33:20;14.27;;;9.45;;
48215;SDS011;34005;48.844;10.098;2023-01-20T12:38:43;14.05;;;9.93;;
48215;SDS011;34005;48.844;10.098;2023-01-20T12:41:28;13.07;;;9.13;;
48215;SDS011;34005;48.844;10.098;2023-01-20T12:44:10;14.55;;;9.55;;
48215;SDS011;34005;48.844;10.098;2023-01-20T12:46:47;14.30;;;9.18;;
48215;SDS011;34005;48.844;10.098;2023-01-20T12:49:26;11.13;;;7.43;;
48215;SDS011;34005;48.844;10.098;2023-01-20T12:52:08;37.83;;;19.70;;
48215;SDS011;34005;48.844;10.098;2023-01-20T12:54:54;31.05;;;15.73;;
48215;SDS011;34005;48.844;10.098;2023-01-20T12:57:41;15.85;;;10.25;;
48215;SDS011;34005;48.844;10.098;2023-01-20T13:00:30;14.05;;;7.85;;
48215;SDS011;34005;48.844;10.098;2023-01-20T13:03:13;11.93;;;8.40;;
48215;SDS011;34005;48.844;10.098;2023-01-20T13:06:01;17.02;;;10.10;;
48215;SDS011;34005;48.844;10.098;2023-01-20T13:08:45;16.70;;;11.10;;
48215;SDS011;34005;48.844;10.098;2023-01-20T13:11:22;10.82;;;6.68;;
48215;SDS011;34005;48.844;10.098;2023-01-20T13:14:05;10.75;;;6.35;;
48215;SDS011;34005;48.844;10.098;2023-01-20T13:16:39;9.65;;;6.95;;
48215;SDS011;34005;48.844;10.098;2023-01-20T13:19:16;9.70;;;6.40;;
48215;SDS011;34005;48.844;10.098;2023-01-20T13:21:51;8.10;;;5.30;;
48215;SDS011;34005;48.844;10.098;2023-01-20T13:24:33;7.88;;;5.50;;
48215;SDS011;34005;48.844;10.098;2023-01-20T13:27:01;7.95;;;5.80;;
48215;SDS011;34005;48.844;10.098;2023-01-20T13:29:40;8.73;;;5.20;;
48215;SDS011;34005;48.844;10.098;2023-01-20T13:32:28;7.25;;;5.60;;
48215;SDS011;34005;48.844;10.098;2023-01-20T13:34:58;9.50;;;5.70;;
48215;SDS011;34005;48.844;10.098;2023-01-20T13:37:35;8.32;;;5.72;;
48215;SDS011;34005;48.844;10.098;2023-01-20T13:40:17;9.32;;;6.13;;
48215;SDS011;34005;48.844;10.098;2023-01-20T13:43:33;8.65;;;5.93;;
48215;SDS011;34005;48.844;10.098;2023-01-20T13:49:11;10.88;;;7.25;;
48215;SDS011;34005;48.844;10.098;2023-01-20T13:51:54;11.55;;;8.18;;
48215;SDS011;34005;48.844;10.098;2023-01-20T13:54:37;12.77;;;8.30;;
48215;SDS011;34005;48.844;10.098;2023-01-20T14:00:01;13.32;;;7.50;;
48215;SDS011;34005;48.844;10.098;2023-01-20T14:02:37;11.88;;;7.95;;
48215;SDS011;34005;48.844;10.098;2023-01-20T14:05:18;11.30;;;7.70;;
48215;SDS011;34005;48.844;10.098;2023-01-20T14:07:47;11.15;;;7.03;;
48215;SDS011;34005;48.844;10.098;2023-01-20T14:10:16;10.40;;;6.25;;
48215;SDS011;34005;48.844;10.098;2023-01-20T14:12:44;9.93;;;6.20;;
48215;SDS011;34005;48.844;10.098;2023-01-20T14:15:26;12.40;;;7.15;;
48215;SDS011;34005;48.844;10.098;2023-01-20T14:17:57;13.52;;;7.40;;
48215;SDS011;34005;48.844;10.098;2023-01-20T14:20:26;12.10;;;7.28;;
48215;SDS011;34005;48.844;10.098;2023-01-20T14:22:55;9.20;;;7.50;;
48215;SDS011;34005;48.844;10.098;2023-01-20T14:25:56;11.45;;;7.10;;
48215;SDS011;34005;48.844;10.098;2023-01-20T14:28:25;12.23;;;6.55;;
48215;SDS011;34005;48.844;10.098;2023-01-20T14:31:10;14.45;;;7.05;;
48215;SDS011;34005;48.844;10.098;2023-01-20T14:33:43;10.18;;;6.15;;
48215;SDS011;34005;48.844;10.098;2023-01-20T14:36:13;9.02;;;6.25;;
48215;SDS011;34005;48.844;10.098;2023-01-20T14:38:42;10.60;;;6.28;;
48215;SDS011;34005;48.844;10.098;2023-01-20T14:41:25;13.98;;;7.78;;
48215;SDS011;34005;48.844;10.098;2023-01-20T14:43:55;7.32;;;5.63;;
48215;SDS011;34005;48.844;10.098;2023-01-20T14:46:24;8.30;;;6.53;;
48215;SDS011;34005;48.844;10.098;2023-01-20T14:48:53;7.95;;;4.97;;
48215;SDS011;34005;48.844;10.098;2023-01-20T14:51:21;10.55;;;7.55;;
48215;SDS011;34005;48.844;10.098;2023-01-20T14:56:56;10.63;;;6.85;;
48215;SDS011;34005;48.844;10.098;2023-01-20T14:59:24;12.38;;;6.32;;
48215;SDS011;34005;48.844;10.098;2023-01-20T15:01:52;10.77;;;6.55;;
48215;SDS011;34005;48.844;10.098;2023-01-20T15:04:22;10.45;;;6.13;;
48215;SDS011;34005;48.844;10.098;2023-01-20T15:06:54;9.00;;;6.43;;
48215;SDS011;34005;48.844;10.098;2023-01-20T15:09:27;7.18;;;5.18;;
48215;SDS011;34005;48.844;10.098;2023-01-20T15:15:16;7.28;;;4.90;;
48215;SDS011;34005;48.844;10.098;2023-01-20T15:20:44;8.57;;;5.82;;
48215;SDS011;34005;48.844;10.098;2023-01-20T15:23:15;6.82;;;5.40;;
48215;SDS011;34005;48.844;10.098;2023-01-20T15:25:46;7.20;;;5.22;;
48215;SDS011;34005;48.844;10.098;2023-01-20T15:28:22;7.95;;;5.13;;
48215;SDS011;34005;48.844;10.098;2023-01-20T15:30:53;7.72;;;5.72;;